createdAt,value
2023-04-25T00:01:25.241Z,3.30
2023-04-25T00:03:52.512Z,2.97
2023-04-25T00:06:19.785Z,3.50
2023-04-25T00:08:46.617Z,3.00
2023-04-25T00:11:13.398Z,2.90
2023-04-25T00:13:42.720Z,3.40
2023-04-25T00:16:09.629Z,3.00
2023-04-25T00:18:37.309Z,3.20
2023-04-25T00:21:04.088Z,2.90
2023-04-25T00:23:30.867Z,2.93
2023-04-25T00:25:57.598Z,2.47
2023-04-25T00:28:24.376Z,2.50
2023-04-25T00:30:51.338Z,2.80
2023-04-25T00:33:18.088Z,3.10
2023-04-25T00:35:44.832Z,2.83
2023-04-25T00:38:11.592Z,2.90
2023-04-25T00:40:38.354Z,2.80
2023-04-25T00:43:05.217Z,2.60
2023-04-25T00:45:32.247Z,2.60
2023-04-25T00:47:59.051Z,2.80
2023-04-25T00:50:25.896Z,2.60
2023-04-25T00:52:53.206Z,3.23
2023-04-25T00:55:20.959Z,2.80
2023-04-25T00:57:47.928Z,2.40
2023-04-25T01:00:15.660Z,2.80
2023-04-25T01:02:46.009Z,2.60
2023-04-25T01:05:13.248Z,2.90
2023-04-25T01:07:40.196Z,2.90
2023-04-25T01:10:07.585Z,2.23
2023-04-25T01:12:34.706Z,2.20
2023-04-25T01:15:01.789Z,2.43
2023-04-25T01:17:30.160Z,2.33
2023-04-25T01:19:57.202Z,2.43
2023-04-25T01:22:24.360Z,2.43
2023-04-25T01:24:51.204Z,2.10
2023-04-25T01:27:19.065Z,2.90
2023-04-25T01:29:46.688Z,3.10
2023-04-25T01:32:14.984Z,3.40
2023-04-25T01:34:41.751Z,3.67
2023-04-25T01:37:08.525Z,2.80
2023-04-25T01:39:35.343Z,3.30
2023-04-25T01:42:02.644Z,3.20
2023-04-25T01:44:29.540Z,4.20
2023-04-25T01:46:56.380Z,4.80
2023-04-25T01:49:23.133Z,3.77
2023-04-25T01:51:49.987Z,3.20
2023-04-25T01:54:16.704Z,2.87
2023-04-25T01:56:43.453Z,3.23
2023-04-25T01:59:10.234Z,3.10
2023-04-25T02:01:37.128Z,2.87
2023-04-25T02:04:04.156Z,3.20
2023-04-25T02:06:31.903Z,3.97
2023-04-25T02:08:58.640Z,2.90
2023-04-25T02:11:25.341Z,3.60
2023-04-25T02:13:52.176Z,3.43
2023-04-25T02:16:20.118Z,2.97
2023-04-25T02:18:47.971Z,2.50
2023-04-25T02:21:14.738Z,2.77
2023-04-25T02:23:41.576Z,3.10
2023-04-25T02:26:08.304Z,3.23
2023-04-25T02:28:35.032Z,2.60
2023-04-25T02:31:01.854Z,2.60
2023-04-25T02:33:28.722Z,2.40
2023-04-25T02:35:55.476Z,2.57
2023-04-25T02:38:22.147Z,2.30
2023-04-25T02:40:48.902Z,2.80
2023-04-25T02:43:17.021Z,2.53
2023-04-25T02:45:43.787Z,2.30
2023-04-25T02:48:10.598Z,2.77
2023-04-25T02:50:37.403Z,2.60
2023-04-25T02:53:04.170Z,3.00
2023-04-25T02:55:30.908Z,2.90
2023-04-25T02:57:57.686Z,2.63
2023-04-25T03:00:24.396Z,3.13
2023-04-25T03:02:52.066Z,3.20
2023-04-25T03:05:19.009Z,3.07
2023-04-25T03:07:46.691Z,2.57
2023-04-25T03:10:13.605Z,2.40
2023-04-25T03:12:40.302Z,2.43
2023-04-25T03:15:07.385Z,2.87
2023-04-25T03:17:34.218Z,3.00
2023-04-25T03:20:02.095Z,2.13
2023-04-25T03:22:28.891Z,2.70
2023-04-25T03:24:55.623Z,2.60
2023-04-25T03:27:22.352Z,2.63
2023-04-25T03:29:49.062Z,2.50
2023-04-25T03:32:16.006Z,2.50
2023-04-25T03:34:42.791Z,2.97
2023-04-25T03:37:09.507Z,2.83
2023-04-25T03:39:36.227Z,2.90
2023-04-25T03:42:03.883Z,3.10
2023-04-25T03:44:30.677Z,2.90
2023-04-25T03:46:57.724Z,3.00
2023-04-25T03:49:25.207Z,2.73
2023-04-25T03:51:52.018Z,2.90
2023-04-25T03:54:18.745Z,3.47
2023-04-25T03:56:45.560Z,3.88
2023-04-25T03:59:12.319Z,3.30
2023-04-25T04:01:39.020Z,3.17
2023-04-25T04:04:06.040Z,3.30
2023-04-25T04:06:33.187Z,3.57
2023-04-25T04:08:59.893Z,3.53
2023-04-25T04:11:27.041Z,3.23
2023-04-25T04:13:53.749Z,3.20
2023-04-25T04:16:20.584Z,2.90
2023-04-25T04:18:47.531Z,3.90
2023-04-25T04:21:14.286Z,3.43
2023-04-25T04:23:41.323Z,3.80
2023-04-25T04:26:09.576Z,3.45
2023-04-25T04:28:36.772Z,3.60
2023-04-25T04:31:03.874Z,4.30
2023-04-25T04:33:32.095Z,4.55
2023-04-25T04:35:58.876Z,3.92
2023-04-25T04:38:26.430Z,4.03
2023-04-25T04:40:53.486Z,3.85
2023-04-25T04:43:20.253Z,4.90
2023-04-25T04:45:47.087Z,3.60
2023-04-25T04:48:15.123Z,3.45
2023-04-25T04:50:43.742Z,3.63
2023-04-25T04:53:10.475Z,4.28
2023-04-25T04:55:37.272Z,3.67
2023-04-25T04:58:04.047Z,4.72
2023-04-25T05:00:30.947Z,4.75
2023-04-25T05:02:58.171Z,10.98
2023-04-25T05:05:25.200Z,9.33
2023-04-25T05:07:52.587Z,5.43
2023-04-25T05:10:20.425Z,6.37
2023-04-25T05:12:47.332Z,5.57
2023-04-25T05:15:14.812Z,5.67
2023-04-25T05:17:41.611Z,8.47
2023-04-25T05:20:10.316Z,8.30
2023-04-25T05:22:37.114Z,8.50
2023-04-25T05:25:04.632Z,8.00
2023-04-25T05:27:31.444Z,6.50
2023-04-25T05:29:58.165Z,6.90
2023-04-25T05:32:26.186Z,8.30
2023-04-25T05:34:53.108Z,8.00
2023-04-25T05:37:19.917Z,6.80
2023-04-25T05:39:46.667Z,5.70
2023-04-25T05:42:13.471Z,5.80
2023-04-25T05:44:40.417Z,4.83
2023-04-25T05:47:07.256Z,4.67
2023-04-25T05:49:34.675Z,6.47
2023-04-25T05:52:01.615Z,5.50
2023-04-25T05:54:28.353Z,6.37
2023-04-25T05:56:55.115Z,5.53
2023-04-25T05:59:21.845Z,4.83
2023-04-25T06:01:48.557Z,4.60
2023-04-25T06:04:15.594Z,4.90
2023-04-25T06:06:42.532Z,4.90
2023-04-25T06:09:09.253Z,5.50
2023-04-25T06:11:36.167Z,5.27
2023-04-25T06:14:02.953Z,5.27
2023-04-25T06:16:29.894Z,5.20
2023-04-25T06:18:56.740Z,6.00
2023-04-25T06:21:23.516Z,4.73
2023-04-25T06:23:50.618Z,4.20
2023-04-25T06:26:17.826Z,3.83
2023-04-25T06:28:44.628Z,4.20
2023-04-25T06:31:11.541Z,3.17
2023-04-25T06:33:38.457Z,3.67
2023-04-25T06:36:05.474Z,3.50
2023-04-25T06:38:32.380Z,3.83
2023-04-25T06:40:59.070Z,3.67
2023-04-25T06:43:25.807Z,3.57
2023-04-25T06:45:52.587Z,3.33
2023-04-25T06:48:19.316Z,3.10
2023-04-25T06:50:46.114Z,4.47
2023-04-25T06:53:13.125Z,3.43
2023-04-25T06:55:39.931Z,3.63
2023-04-25T06:58:06.624Z,3.70
2023-04-25T07:00:34.546Z,3.70
2023-04-25T07:03:01.752Z,3.20
2023-04-25T07:05:28.667Z,3.40
2023-04-25T07:07:55.909Z,4.00
2023-04-25T07:10:22.762Z,3.50
2023-04-25T07:12:49.657Z,3.70
2023-04-25T07:15:16.759Z,3.83
2023-04-25T07:17:43.702Z,2.97
2023-04-25T07:20:11.177Z,3.43
2023-04-25T07:22:38.028Z,3.03
2023-04-25T07:25:08.220Z,2.93
2023-04-25T07:27:34.983Z,3.20
2023-04-25T07:30:01.853Z,2.60
2023-04-25T07:32:28.687Z,2.93
2023-04-25T07:34:55.560Z,4.13
2023-04-25T07:37:22.388Z,3.77
2023-04-25T07:39:49.435Z,3.40
2023-04-25T07:42:16.158Z,3.50
2023-04-25T07:44:43.374Z,3.60
2023-04-25T07:47:11.301Z,3.10
2023-04-25T07:49:38.471Z,3.67
2023-04-25T07:52:07.341Z,3.23
2023-04-25T07:54:34.181Z,3.07
2023-04-25T07:57:00.970Z,3.20
2023-04-25T07:59:30.024Z,3.40
2023-04-25T08:01:58.423Z,3.53
2023-04-25T08:04:26.838Z,3.07
2023-04-25T08:06:54.786Z,3.30
2023-04-25T08:09:22.199Z,3.13
2023-04-25T08:11:49.328Z,3.30
2023-04-25T08:14:16.065Z,3.70
2023-04-25T08:16:43.326Z,3.10
2023-04-25T08:19:11.202Z,3.63
2023-04-25T08:21:38.047Z,2.63
2023-04-25T08:24:05.029Z,3.60
2023-04-25T08:26:31.870Z,3.00
2023-04-25T08:28:58.586Z,3.90
2023-04-25T08:31:25.329Z,2.60
2023-04-25T08:33:53.027Z,2.90
2023-04-25T08:36:31.504Z,2.97
2023-04-25T08:39:05.134Z,2.70
2023-04-25T08:41:32.738Z,3.10
2023-04-25T08:44:01.551Z,3.57
2023-04-25T08:46:28.835Z,2.70
2023-04-25T08:49:01.057Z,3.57
2023-04-25T08:51:31.950Z,2.83
2023-04-25T08:54:16.184Z,2.60
2023-04-25T08:56:50.721Z,3.60
2023-04-25T08:59:18.436Z,3.30
2023-04-25T09:01:46.151Z,2.70
2023-04-25T09:04:13.867Z,2.53
2023-04-25T09:06:40.950Z,2.80
2023-04-25T09:09:09.735Z,3.20
2023-04-25T09:11:37.917Z,2.80
2023-04-25T09:14:17.961Z,3.37
2023-04-25T09:16:56.697Z,3.33
2023-04-25T09:19:38.770Z,2.90
2023-04-25T09:22:08.798Z,3.57
2023-04-25T09:24:41.654Z,3.50
2023-04-25T09:27:13.165Z,4.47
2023-04-25T09:29:41.828Z,3.63
2023-04-25T09:32:17.603Z,3.97
2023-04-25T09:34:49.359Z,3.40
2023-04-25T09:37:42.681Z,4.20
2023-04-25T09:40:11.134Z,3.63
2023-04-25T09:42:42.508Z,3.80
2023-04-25T09:45:13.578Z,3.80
2023-04-25T09:47:41.509Z,3.27
2023-04-25T09:50:20.067Z,3.63
2023-04-25T09:52:46.861Z,3.50
2023-04-25T09:55:13.693Z,3.43
2023-04-25T09:57:41.321Z,3.37
2023-04-25T10:00:13.029Z,3.67
2023-04-25T10:02:43.439Z,3.47
2023-04-25T10:05:11.710Z,3.27
2023-04-25T10:07:39.833Z,3.30
2023-04-25T10:10:07.249Z,3.00
2023-04-25T10:12:35.133Z,2.77
2023-04-25T10:15:03.784Z,2.97
2023-04-25T10:17:30.940Z,3.20
2023-04-25T10:19:58.478Z,3.57
2023-04-25T10:22:33.949Z,2.67
2023-04-25T10:25:01.339Z,2.57
2023-04-25T10:27:29.348Z,2.97
2023-04-25T10:30:12.461Z,2.83
2023-04-25T10:32:39.663Z,3.23
2023-04-25T10:35:24.943Z,2.70
2023-04-25T10:38:11.400Z,2.87
2023-04-25T10:40:38.187Z,2.80
2023-04-25T10:43:29.810Z,2.57
2023-04-25T10:45:56.508Z,2.90
2023-04-25T10:48:50.321Z,3.10
2023-04-25T10:51:25.831Z,2.70
2023-04-25T10:54:06.441Z,3.20
2023-04-25T10:56:42.294Z,2.10
2023-04-25T10:59:19.208Z,1.60
2023-04-25T11:01:48.323Z,1.60
2023-04-25T11:04:26.848Z,1.70
2023-04-25T11:07:09.297Z,1.40
2023-04-25T11:09:37.370Z,1.30
2023-04-25T11:12:04.582Z,1.30
2023-04-25T11:14:31.431Z,2.10
2023-04-25T11:17:00.746Z,1.73
2023-04-25T11:19:28.947Z,1.40
2023-04-25T11:22:03.675Z,1.90
2023-04-25T11:24:35.884Z,2.27
2023-04-25T11:27:03.780Z,1.80
2023-04-25T11:29:31.990Z,1.40
2023-04-25T11:31:59.628Z,1.40
2023-04-25T11:34:27.138Z,1.67
2023-04-25T11:36:54.592Z,1.83
2023-04-25T11:39:22.414Z,4.33
2023-04-25T11:41:49.314Z,4.40
2023-04-25T11:44:20.502Z,4.70
2023-04-25T11:46:47.706Z,5.27
2023-04-25T11:49:19.285Z,4.70
2023-04-25T11:51:48.457Z,4.70
2023-04-25T11:54:16.417Z,3.30
2023-04-25T11:56:44.342Z,3.30
2023-04-25T11:59:11.591Z,3.17
2023-04-25T12:01:40.786Z,2.43
2023-04-25T12:04:15.109Z,2.67
2023-04-25T12:06:43.655Z,2.50
2023-04-25T12:09:12.223Z,1.70
2023-04-25T12:11:49.979Z,1.60
2023-04-25T12:14:30.976Z,1.33
2023-04-25T12:16:59.993Z,1.27
2023-04-25T12:19:27.549Z,1.50
2023-04-25T12:21:58.710Z,1.30
2023-04-25T12:24:28.394Z,1.43
2023-04-25T12:27:06.069Z,1.27
2023-04-25T12:29:46.000Z,1.53
2023-04-25T12:32:16.694Z,1.43
2023-04-25T12:34:43.595Z,1.80
2023-04-25T12:37:10.658Z,1.87
2023-04-25T12:39:37.602Z,2.10
2023-04-25T12:42:07.821Z,2.90
2023-04-25T12:44:36.656Z,2.53
2023-04-25T12:47:04.160Z,3.07
2023-04-25T12:49:31.289Z,3.30
2023-04-25T12:51:58.299Z,3.30
2023-04-25T12:54:25.713Z,3.20
2023-04-25T12:56:52.573Z,2.70
2023-04-25T12:59:20.915Z,3.50
2023-04-25T13:01:47.969Z,3.53
2023-04-25T13:04:14.914Z,3.47
2023-04-25T13:06:41.705Z,2.90
2023-04-25T13:09:08.397Z,4.00
2023-04-25T13:11:35.206Z,2.77
2023-04-25T13:14:02.705Z,2.73
2023-04-25T13:16:29.580Z,2.80
2023-04-25T13:18:57.358Z,2.77
2023-04-25T13:21:24.397Z,2.60
2023-04-25T13:23:51.382Z,2.90
2023-04-25T13:26:18.511Z,3.17
2023-04-25T13:28:45.916Z,3.67
2023-04-25T13:31:12.727Z,3.40
2023-04-25T13:33:39.503Z,3.63
2023-04-25T13:36:06.545Z,3.20
2023-04-25T13:38:33.617Z,5.00
2023-04-25T13:41:00.570Z,3.07
2023-04-25T13:43:27.329Z,3.30
2023-04-25T13:45:54.145Z,2.73
2023-04-25T13:48:21.214Z,3.40
2023-04-25T13:50:48.096Z,3.57
2023-04-25T13:53:15.221Z,2.83
2023-04-25T13:55:42.044Z,2.80
2023-04-25T13:58:10.618Z,2.70
2023-04-25T14:00:39.980Z,2.10
2023-04-25T14:03:08.987Z,2.60
2023-04-25T14:05:41.220Z,3.10
2023-04-25T14:08:09.449Z,3.10
2023-04-25T14:10:36.747Z,3.60
2023-04-25T14:13:04.483Z,3.00
2023-04-25T14:15:35.588Z,3.07
2023-04-25T14:18:02.679Z,3.30
2023-04-25T14:20:29.843Z,3.70
2023-04-25T14:22:58.962Z,3.40
2023-04-25T14:25:26.319Z,3.43
2023-04-25T14:27:53.152Z,3.50
2023-04-25T14:30:21.392Z,3.27
2023-04-25T14:32:50.580Z,3.20
2023-04-25T14:35:17.708Z,3.70
2023-04-25T14:37:44.988Z,2.97
2023-04-25T14:40:14.019Z,3.07
2023-04-25T14:42:41.406Z,3.37
2023-04-25T14:45:09.642Z,3.33
2023-04-25T14:47:39.679Z,3.17
2023-04-25T14:50:07.763Z,3.10
2023-04-25T14:52:34.690Z,2.80
2023-04-25T14:55:05.694Z,3.33
2023-04-25T14:57:36.123Z,3.80
2023-04-25T15:00:06.079Z,4.00
2023-04-25T15:02:33.027Z,3.50
2023-04-25T15:05:00.035Z,3.23
2023-04-25T15:07:26.989Z,4.20
2023-04-25T15:09:54.953Z,2.93
2023-04-25T15:12:21.829Z,3.60
2023-04-25T15:14:48.588Z,3.60
2023-04-25T15:17:15.846Z,3.20
2023-04-25T15:19:42.565Z,3.50
2023-04-25T15:22:09.452Z,3.60
2023-04-25T15:24:36.542Z,5.33
2023-04-25T15:27:04.031Z,4.00
2023-04-25T15:29:31.052Z,5.67
2023-04-25T15:31:58.361Z,4.80
2023-04-25T15:34:25.110Z,5.73
2023-04-25T15:36:52.156Z,5.00
2023-04-25T15:39:18.934Z,4.50
2023-04-25T15:41:45.789Z,4.60
2023-04-25T15:44:12.508Z,4.30
2023-04-25T15:46:39.852Z,4.77
2023-04-25T15:49:06.797Z,4.30
2023-04-25T15:51:33.752Z,3.63
2023-04-25T15:54:02.603Z,2.00
2023-04-25T15:56:29.595Z,1.93
2023-04-25T15:58:56.310Z,1.70
2023-04-25T16:01:24.566Z,1.47
2023-04-25T16:03:53.165Z,2.10
2023-04-25T16:06:20.385Z,1.90
2023-04-25T16:08:47.134Z,3.00
2023-04-25T16:11:14.800Z,2.77
2023-04-25T16:13:41.772Z,2.30
2023-04-25T16:16:08.788Z,2.00
2023-04-25T16:18:35.768Z,2.23
2023-04-25T16:21:02.756Z,2.63
2023-04-25T16:23:29.926Z,16.70
2023-04-25T16:25:56.848Z,9.93
2023-04-25T16:28:23.681Z,4.40
2023-04-25T16:30:50.505Z,6.90
2023-04-25T16:33:17.328Z,5.97
2023-04-25T16:35:44.474Z,4.30
2023-04-25T16:38:11.235Z,3.90
2023-04-25T16:40:38.073Z,4.57
2023-04-25T16:43:04.827Z,4.07
2023-04-25T16:45:31.775Z,3.57
2023-04-25T16:47:58.634Z,5.80
2023-04-25T16:50:25.536Z,10.87
2023-04-25T16:52:52.505Z,7.83
2023-04-25T16:55:19.368Z,6.00
2023-04-25T16:57:46.111Z,4.23
2023-04-25T17:00:13.645Z,7.30
2023-04-25T17:02:40.699Z,8.20
2023-04-25T17:05:07.950Z,7.10
2023-04-25T17:07:34.667Z,8.27
2023-04-25T17:10:01.447Z,5.60
2023-04-25T17:12:28.264Z,6.47
2023-04-25T17:14:55.021Z,5.00
2023-04-25T17:17:21.792Z,4.50
2023-04-25T17:19:48.544Z,4.10
2023-04-25T17:22:15.756Z,3.83
2023-04-25T17:24:42.577Z,3.90
2023-04-25T17:27:11.223Z,3.90
2023-04-25T17:29:37.969Z,3.93
2023-04-25T17:32:05.062Z,4.97
2023-04-25T17:34:31.898Z,15.47
2023-04-25T17:36:58.776Z,30.80
2023-04-25T17:39:25.563Z,6.43
2023-04-25T17:41:52.712Z,4.60
2023-04-25T17:44:19.464Z,4.20
2023-04-25T17:46:46.211Z,5.13
2023-04-25T17:49:13.059Z,5.57
2023-04-25T17:51:39.853Z,5.07
2023-04-25T17:54:06.720Z,5.10
2023-04-25T17:56:36.358Z,5.33
2023-04-25T17:59:03.213Z,5.50
2023-04-25T18:01:30.362Z,4.80
2023-04-25T18:03:57.255Z,4.50
2023-04-25T18:06:24.149Z,6.03
2023-04-25T18:08:51.542Z,5.00
2023-04-25T18:11:18.566Z,4.57
2023-04-25T18:13:45.325Z,4.40
2023-04-25T18:16:12.165Z,4.40
2023-04-25T18:18:38.959Z,8.40
2023-04-25T18:21:07.845Z,5.80
2023-04-25T18:23:35.131Z,5.97
2023-04-25T18:26:03.968Z,6.77
2023-04-25T18:28:30.836Z,6.07
2023-04-25T18:30:57.938Z,4.87
2023-04-25T18:33:25.244Z,4.30
2023-04-25T18:38:35.036Z,33.53
2023-04-25T18:41:18.424Z,10.33
2023-04-25T18:43:49.783Z,8.00
2023-04-25T18:46:17.764Z,5.27
2023-04-25T18:48:44.564Z,6.87
2023-04-25T18:51:11.789Z,6.90
2023-04-25T18:53:38.634Z,5.50
2023-04-25T18:56:05.634Z,5.60
2023-04-25T18:58:32.550Z,6.60
2023-04-25T19:00:59.946Z,10.70
2023-04-25T19:03:27.552Z,7.77
2023-04-25T19:05:54.436Z,4.53
2023-04-25T19:08:21.742Z,4.00
2023-04-25T19:10:50.223Z,3.87
2023-04-25T19:13:16.979Z,7.33
2023-04-25T19:15:43.770Z,9.87
2023-04-25T19:18:10.589Z,6.70
2023-04-25T19:20:37.480Z,7.23
2023-04-25T19:23:05.422Z,6.87
2023-04-25T19:25:32.242Z,7.50
2023-04-25T19:28:00.602Z,7.10
2023-04-25T19:30:29.321Z,7.20
2023-04-25T19:32:59.092Z,7.30
2023-04-25T19:35:30.722Z,6.50
2023-04-25T19:37:57.508Z,5.50
2023-04-25T19:40:25.120Z,5.57
2023-04-25T19:42:51.836Z,6.37
2023-04-25T19:45:18.685Z,5.07
2023-04-25T19:47:45.504Z,6.67
2023-04-25T19:50:12.436Z,5.90
2023-04-25T19:52:39.493Z,5.43
2023-04-25T19:55:07.086Z,5.30
2023-04-25T19:57:37.584Z,5.30
2023-04-25T20:00:14.342Z,5.90
2023-04-25T20:02:43.699Z,6.07
2023-04-25T20:05:12.584Z,8.03
2023-04-25T20:07:39.560Z,7.40
2023-04-25T20:10:13.692Z,7.07
2023-04-25T20:12:40.649Z,7.00
2023-04-25T20:15:11.802Z,7.17
2023-04-25T20:17:40.306Z,7.17
2023-04-25T20:20:08.032Z,6.10
2023-04-25T20:22:38.804Z,7.43
2023-04-25T20:25:08.127Z,7.13
2023-04-25T20:27:35.071Z,7.37
2023-04-25T20:30:04.982Z,6.90
2023-04-25T20:32:32.203Z,8.13
2023-04-25T20:34:59.012Z,7.57
2023-04-25T20:37:25.798Z,7.70
2023-04-25T20:39:52.772Z,8.00
2023-04-25T20:42:19.601Z,7.63
2023-04-25T20:44:46.392Z,7.53
2023-04-25T20:47:13.133Z,7.80
2023-04-25T20:49:39.925Z,8.20
2023-04-25T20:52:07.697Z,7.60
2023-04-25T20:54:34.457Z,8.37
2023-04-25T20:57:02.361Z,9.50
2023-04-25T20:59:29.214Z,9.00
2023-04-25T21:01:56.471Z,9.73
2023-04-25T21:04:23.819Z,8.60
2023-04-25T21:06:50.676Z,8.80
2023-04-25T21:09:18.605Z,7.10
2023-04-25T21:11:46.201Z,7.10
2023-04-25T21:14:12.984Z,6.97
2023-04-25T21:16:40.866Z,7.43
2023-04-25T21:19:07.620Z,7.17
2023-04-25T21:21:34.434Z,7.17
2023-04-25T21:24:01.118Z,5.80
2023-04-25T21:26:27.910Z,8.33
2023-04-25T21:28:54.770Z,6.40
2023-04-25T21:31:22.123Z,6.33
2023-04-25T21:33:48.897Z,7.37
2023-04-25T21:36:15.859Z,7.13
2023-04-25T21:38:42.627Z,8.33
2023-04-25T21:41:09.393Z,7.43
2023-04-25T21:43:36.737Z,6.80
2023-04-25T21:46:19.059Z,7.33
2023-04-25T21:48:48.766Z,7.10
2023-04-25T21:51:15.493Z,6.83
2023-04-25T21:53:42.417Z,6.40
2023-04-25T21:56:10.645Z,7.30
2023-04-25T21:58:37.432Z,7.77
2023-04-25T22:01:07.141Z,6.63
2023-04-25T22:03:34.262Z,6.27
2023-04-25T22:06:01.243Z,7.03
2023-04-25T22:08:27.976Z,6.77
2023-04-25T22:10:57.826Z,7.27
2023-04-25T22:13:24.657Z,7.50
2023-04-25T22:15:52.589Z,6.80
2023-04-25T22:18:19.794Z,6.80
2023-04-25T22:20:46.560Z,6.93
2023-04-25T22:23:13.773Z,7.50
2023-04-25T22:25:40.640Z,5.73
2023-04-25T22:28:07.532Z,6.90
2023-04-25T22:30:35.040Z,7.10
2023-04-25T22:33:01.938Z,6.67
2023-04-25T22:35:28.737Z,7.40
2023-04-25T22:37:55.485Z,6.77
2023-04-25T22:40:22.245Z,7.67
2023-04-25T22:42:49.006Z,7.20
2023-04-25T22:45:16.049Z,7.33
2023-04-25T22:47:43.217Z,8.07
2023-04-25T22:50:13.924Z,7.23
2023-04-25T22:52:42.448Z,7.50
2023-04-25T22:55:11.023Z,8.17
2023-04-25T22:57:40.699Z,8.10
2023-04-25T23:00:15.664Z,7.80
2023-04-25T23:02:45.705Z,8.20
2023-04-25T23:05:13.729Z,7.23
2023-04-25T23:07:42.017Z,7.17
2023-04-25T23:10:09.340Z,8.40
2023-04-25T23:12:36.504Z,8.10
2023-04-25T23:15:05.141Z,8.00
2023-04-25T23:17:32.612Z,8.10
2023-04-25T23:19:59.635Z,8.53
2023-04-25T23:22:26.380Z,8.57
2023-04-25T23:24:53.153Z,8.27
2023-04-25T23:27:19.916Z,8.60
2023-04-25T23:29:54.714Z,7.87
2023-04-25T23:32:22.303Z,8.30
2023-04-25T23:34:49.455Z,8.40
2023-04-25T23:37:16.513Z,10.03
2023-04-25T23:39:52.945Z,9.10
2023-04-25T23:42:19.808Z,9.10
2023-04-25T23:44:46.578Z,9.60
2023-04-25T23:47:14.357Z,9.27
2023-04-25T23:49:41.459Z,7.80
2023-04-25T23:52:08.315Z,8.80
2023-04-25T23:54:35.413Z,8.87
2023-04-25T23:57:04.460Z,9.20
2023-04-25T23:59:31.725Z,8.87
